sensor_id;sensor_type;location;lat;lon;timestamp;temperature;humidity
23143;DHT22;11740;51.168;4.112;2022-09-17T00:02:16;10.70;1.00
23143;DHT22;11740;51.168;4.112;2022-09-17T00:04:43;10.70;1.00
23143;DHT22;11740;51.168;4.112;2022-09-17T00:07:10;10.70;1.00
23143;DHT22;11740;51.168;4.112;2022-09-17T00:09:37;10.70;99.90
23143;DHT22;11740;51.168;4.112;2022-09-17T00:12:04;10.70;99.90
23143;DHT22;11740;51.168;4.112;2022-09-17T00:14:31;10.70;99.90
23143;DHT22;11740;51.168;4.112;2022-09-17T00:16:57;10.70;99.90
23143;DHT22;11740;51.168;4.112;2022-09-17T00:19:27;10.70;99.90
23143;DHT22;11740;51.168;4.112;2022-09-17T00:21:54;10.70;1.00
23143;DHT22;11740;51.168;4.112;2022-09-17T00:24:21;10.70;1.00
23143;DHT22;11740;51.168;4.112;2022-09-17T00:26:48;10.60;1.00
23143;DHT22;11740;51.168;4.112;2022-09-17T00:29:15;10.70;1.00
23143;DHT22;11740;51.168;4.112;2022-09-17T00:31:42;10.60;1.00
23143;DHT22;11740;51.168;4.112;2022-09-17T00:34:09;10.70;99.90
23143;DHT22;11740;51.168;4.112;2022-09-17T00:36:37;10.70;99.90
23143;DHT22;11740;51.168;4.112;2022-09-17T00:39:05;10.70;99.90
23143;DHT22;11740;51.168;4.112;2022-09-17T00:41:33;10.70;99.90
23143;DHT22;11740;51.168;4.112;2022-09-17T00:47:08;10.70;1.00
23143;DHT22;11740;51.168;4.112;2022-09-17T00:49:39;10.70;1.00
23143;DHT22;11740;51.168;4.112;2022-09-17T00:52:10;10.70;1.00
23143;DHT22;11740;51.168;4.112;2022-09-17T00:54:39;10.70;1.00
23143;DHT22;11740;51.168;4.112;2022-09-17T00:57:07;10.70;1.00
23143;DHT22;11740;51.168;4.112;2022-09-17T00:59:34;10.70;1.00
23143;DHT22;11740;51.168;4.112;2022-09-17T01:02:02;10.70;1.00
23143;DHT22;11740;51.168;4.112;2022-09-17T01:04:29;10.70;1.00
23143;DHT22;11740;51.168;4.112;2022-09-17T01:07:21;10.70;1.00
23143;DHT22;11740;51.168;4.112;2022-09-17T01:09:54;10.70;1.00
23143;DHT22;11740;51.168;4.112;2022-09-17T01:12:34;10.70;1.00
23143;DHT22;11740;51.168;4.112;2022-09-17T01:28:38;10.70;1.00
23143;DHT22;11740;51.168;4.112;2022-09-17T01:31:27;10.70;1.00
23143;DHT22;11740;51.168;4.112;2022-09-17T01:36:52;10.70;99.90
23143;DHT22;11740;51.168;4.112;2022-09-17T01:42:24;10.70;99.90
23143;DHT22;11740;51.168;4.112;2022-09-17T01:44:55;10.70;99.90
23143;DHT22;11740;51.168;4.112;2022-09-17T01:50:09;10.70;98.40
23143;DHT22;11740;51.168;4.112;2022-09-17T01:52:39;10.70;99.90
23143;DHT22;11740;51.168;4.112;2022-09-17T01:55:08;10.70;23.90
23143;DHT22;11740;51.168;4.112;2022-09-17T02:00:15;10.70;1.00
23143;DHT22;11740;51.168;4.112;2022-09-17T02:02:51;10.70;1.00
23143;DHT22;11740;51.168;4.112;2022-09-17T02:05:21;10.70;1.00
23143;DHT22;11740;51.168;4.112;2022-09-17T02:07:54;10.70;1.00
23143;DHT22;11740;51.168;4.112;2022-09-17T02:10:26;10.80;99.90
23143;DHT22;11740;51.168;4.112;2022-09-17T02:12:57;10.70;99.90
23143;DHT22;11740;51.168;4.112;2022-09-17T02:15:35;10.70;1.00
23143;DHT22;11740;51.168;4.112;2022-09-17T02:20:57;10.70;1.00
23143;DHT22;11740;51.168;4.112;2022-09-17T02:23:30;10.70;1.00
23143;DHT22;11740;51.168;4.112;2022-09-17T02:26:11;10.70;1.00
23143;DHT22;11740;51.168;4.112;2022-09-17T02:28:42;10.60;1.00
23143;DHT22;11740;51.168;4.112;2022-09-17T02:31:11;10.60;99.90
23143;DHT22;11740;51.168;4.112;2022-09-17T02:33:39;10.60;99.90
23143;DHT22;11740;51.168;4.112;2022-09-17T02:36:07;10.60;99.90
23143;DHT22;11740;51.168;4.112;2022-09-17T02:38:34;10.60;99.90
23143;DHT22;11740;51.168;4.112;2022-09-17T02:41:05;10.50;99.90
23143;DHT22;11740;51.168;4.112;2022-09-17T02:49:23;10.40;99.90
23143;DHT22;11740;51.168;4.112;2022-09-17T02:52:14;10.40;97.90
23143;DHT22;11740;51.168;4.112;2022-09-17T02:58:03;10.40;24.70
23143;DHT22;11740;51.168;4.112;2022-09-17T03:00:14;10.40;2.70
23143;DHT22;11740;51.168;4.112;2022-09-17T03:05:21;10.30;63.00
23143;DHT22;11740;51.168;4.112;2022-09-17T03:07:48;10.30;99.90
23143;DHT22;11740;51.168;4.112;2022-09-17T03:10:16;10.30;48.60
23143;DHT22;11740;51.168;4.112;2022-09-17T03:12:43;10.20;99.90
23143;DHT22;11740;51.168;4.112;2022-09-17T03:15:09;10.20;99.90
23143;DHT22;11740;51.168;4.112;2022-09-17T03:17:36;10.20;99.90
23143;DHT22;11740;51.168;4.112;2022-09-17T03:20:03;10.20;99.90
23143;DHT22;11740;51.168;4.112;2022-09-17T03:22:31;10.10;99.90
23143;DHT22;11740;51.168;4.112;2022-09-17T03:24:58;10.10;99.90
23143;DHT22;11740;51.168;4.112;2022-09-17T03:27:24;10.10;99.90
23143;DHT22;11740;51.168;4.112;2022-09-17T03:29:51;10.00;99.90
23143;DHT22;11740;51.168;4.112;2022-09-17T03:32:18;10.00;99.90
23143;DHT22;11740;51.168;4.112;2022-09-17T03:34:45;10.00;99.90
23143;DHT22;11740;51.168;4.112;2022-09-17T03:37:12;9.90;99.90
23143;DHT22;11740;51.168;4.112;2022-09-17T03:39:39;9.90;99.90
23143;DHT22;11740;51.168;4.112;2022-09-17T03:42:06;9.90;24.90
23143;DHT22;11740;51.168;4.112;2022-09-17T03:44:33;9.90;1.00
23143;DHT22;11740;51.168;4.112;2022-09-17T03:47:00;9.80;1.00
23143;DHT22;11740;51.168;4.112;2022-09-17T03:49:26;9.80;1.00
23143;DHT22;11740;51.168;4.112;2022-09-17T03:51:53;9.80;1.00
23143;DHT22;11740;51.168;4.112;2022-09-17T03:54:20;9.80;1.00
23143;DHT22;11740;51.168;4.112;2022-09-17T03:56:47;9.80;1.00
23143;DHT22;11740;51.168;4.112;2022-09-17T03:59:14;9.80;1.00
23143;DHT22;11740;51.168;4.112;2022-09-17T04:01:40;9.80;1.00
23143;DHT22;11740;51.168;4.112;2022-09-17T04:04:07;9.80;1.00
23143;DHT22;11740;51.168;4.112;2022-09-17T04:06:34;9.80;1.00
23143;DHT22;11740;51.168;4.112;2022-09-17T04:09:01;9.80;1.00
23143;DHT22;11740;51.168;4.112;2022-09-17T04:11:30;9.80;40.90
23143;DHT22;11740;51.168;4.112;2022-09-17T04:13:57;9.70;61.40
23143;DHT22;11740;51.168;4.112;2022-09-17T04:16:24;9.70;1.00
23143;DHT22;11740;51.168;4.112;2022-09-17T04:18:51;9.70;1.00
23143;DHT22;11740;51.168;4.112;2022-09-17T04:21:18;9.70;1.00
23143;DHT22;11740;51.168;4.112;2022-09-17T04:23:44;9.70;1.00
23143;DHT22;11740;51.168;4.112;2022-09-17T04:26:11;9.70;1.00
23143;DHT22;11740;51.168;4.112;2022-09-17T04:28:38;9.70;1.00
23143;DHT22;11740;51.168;4.112;2022-09-17T04:31:05;9.70;1.00
23143;DHT22;11740;51.168;4.112;2022-09-17T04:33:32;9.70;1.00
23143;DHT22;11740;51.168;4.112;2022-09-17T04:35:59;9.60;1.00
23143;DHT22;11740;51.168;4.112;2022-09-17T04:38:25;9.60;1.00
23143;DHT22;11740;51.168;4.112;2022-09-17T04:40:52;9.60;1.00
23143;DHT22;11740;51.168;4.112;2022-09-17T04:43:22;9.50;1.00
23143;DHT22;11740;51.168;4.112;2022-09-17T04:45:49;9.50;1.00
23143;DHT22;11740;51.168;4.112;2022-09-17T04:48:16;9.50;1.00
23143;DHT22;11740;51.168;4.112;2022-09-17T04:50:43;9.50;1.00
23143;DHT22;11740;51.168;4.112;2022-09-17T04:53:10;9.50;1.00
23143;DHT22;11740;51.168;4.112;2022-09-17T04:55:38;9.50;1.00
23143;DHT22;11740;51.168;4.112;2022-09-17T04:58:05;9.50;1.00
23143;DHT22;11740;51.168;4.112;2022-09-17T05:00:32;9.60;1.00
23143;DHT22;11740;51.168;4.112;2022-09-17T05:03:00;9.50;1.00
23143;DHT22;11740;51.168;4.112;2022-09-17T05:05:27;9.60;99.90
23143;DHT22;11740;51.168;4.112;2022-09-17T05:07:54;9.60;1.00
23143;DHT22;11740;51.168;4.112;2022-09-17T05:10:21;9.60;1.00
23143;DHT22;11740;51.168;4.112;2022-09-17T05:12:49;9.60;1.00
23143;DHT22;11740;51.168;4.112;2022-09-17T05:15:17;9.60;1.00
23143;DHT22;11740;51.168;4.112;2022-09-17T05:17:44;9.60;83.10
23143;DHT22;11740;51.168;4.112;2022-09-17T05:20:11;9.60;99.90
23143;DHT22;11740;51.168;4.112;2022-09-17T05:22:40;9.60;99.90
23143;DHT22;11740;51.168;4.112;2022-09-17T05:25:11;9.60;99.90
23143;DHT22;11740;51.168;4.112;2022-09-17T05:27:39;9.60;99.90
23143;DHT22;11740;51.168;4.112;2022-09-17T05:30:06;9.60;99.90
23143;DHT22;11740;51.168;4.112;2022-09-17T05:32:34;9.60;99.90
23143;DHT22;11740;51.168;4.112;2022-09-17T05:35:02;9.60;99.90
23143;DHT22;11740;51.168;4.112;2022-09-17T05:37:31;9.70;22.10
23143;DHT22;11740;51.168;4.112;2022-09-17T05:39:58;9.70;10.00
23143;DHT22;11740;51.168;4.112;2022-09-17T05:42:25;9.70;1.00
23143;DHT22;11740;51.168;4.112;2022-09-17T05:44:52;9.70;24.80
23143;DHT22;11740;51.168;4.112;2022-09-17T05:47:19;9.70;1.00
23143;DHT22;11740;51.168;4.112;2022-09-17T05:49:46;9.70;1.00
23143;DHT22;11740;51.168;4.112;2022-09-17T05:52:12;9.80;24.80
23143;DHT22;11740;51.168;4.112;2022-09-17T05:54:39;9.70;99.90
23143;DHT22;11740;51.168;4.112;2022-09-17T05:57:06;9.70;66.10
23143;DHT22;11740;51.168;4.112;2022-09-17T05:59:33;9.70;54.40
23143;DHT22;11740;51.168;4.112;2022-09-17T06:02:01;9.80;84.50
23143;DHT22;11740;51.168;4.112;2022-09-17T06:04:28;9.80;99.90
23143;DHT22;11740;51.168;4.112;2022-09-17T06:07:02;9.90;1.00
23143;DHT22;11740;51.168;4.112;2022-09-17T06:09:35;10.00;1.00
23143;DHT22;11740;51.168;4.112;2022-09-17T06:12:03;10.00;1.00
23143;DHT22;11740;51.168;4.112;2022-09-17T06:14:30;10.00;1.00
23143;DHT22;11740;51.168;4.112;2022-09-17T06:16:57;10.00;1.00
23143;DHT22;11740;51.168;4.112;2022-09-17T06:19:24;10.00;1.00
23143;DHT22;11740;51.168;4.112;2022-09-17T06:21:51;10.10;1.00
23143;DHT22;11740;51.168;4.112;2022-09-17T06:24:18;10.00;1.00
23143;DHT22;11740;51.168;4.112;2022-09-17T06:26:44;10.00;1.00
23143;DHT22;11740;51.168;4.112;2022-09-17T06:29:11;10.10;1.00
23143;DHT22;11740;51.168;4.112;2022-09-17T06:31:40;10.10;1.00
23143;DHT22;11740;51.168;4.112;2022-09-17T06:34:10;10.30;1.00
23143;DHT22;11740;51.168;4.112;2022-09-17T06:36:37;10.20;1.00
23143;DHT22;11740;51.168;4.112;2022-09-17T06:39:05;10.30;1.00
23143;DHT22;11740;51.168;4.112;2022-09-17T06:41:32;10.20;1.00
23143;DHT22;11740;51.168;4.112;2022-09-17T06:43:59;10.30;1.00
23143;DHT22;11740;51.168;4.112;2022-09-17T06:46:27;10.20;1.00
23143;DHT22;11740;51.168;4.112;2022-09-17T06:48:54;10.30;1.00
23143;DHT22;11740;51.168;4.112;2022-09-17T06:51:21;10.40;1.00
23143;DHT22;11740;51.168;4.112;2022-09-17T06:53:48;10.50;29.40
23143;DHT22;11740;51.168;4.112;2022-09-17T06:56:15;10.50;34.70
23143;DHT22;11740;51.168;4.112;2022-09-17T06:58:42;10.50;29.00
23143;DHT22;11740;51.168;4.112;2022-09-17T07:01:10;10.50;1.00
23143;DHT22;11740;51.168;4.112;2022-09-17T07:03:37;10.50;1.00
23143;DHT22;11740;51.168;4.112;2022-09-17T07:06:07;10.50;1.00
23143;DHT22;11740;51.168;4.112;2022-09-17T07:08:35;10.60;1.00
23143;DHT22;11740;51.168;4.112;2022-09-17T07:11:03;10.60;1.00
23143;DHT22;11740;51.168;4.112;2022-09-17T07:13:30;10.60;1.00
23143;DHT22;11740;51.168;4.112;2022-09-17T07:15:57;10.70;1.40
23143;DHT22;11740;51.168;4.112;2022-09-17T07:18:26;10.70;1.00
23143;DHT22;11740;51.168;4.112;2022-09-17T07:23:23;10.80;1.00
23143;DHT22;11740;51.168;4.112;2022-09-17T07:25:54;10.80;1.00
23143;DHT22;11740;51.168;4.112;2022-09-17T07:28:23;10.80;1.00
23143;DHT22;11740;51.168;4.112;2022-09-17T07:30:51;10.80;1.00
23143;DHT22;11740;51.168;4.112;2022-09-17T07:33:19;10.80;1.00
23143;DHT22;11740;51.168;4.112;2022-09-17T07:35:51;10.80;1.00
23143;DHT22;11740;51.168;4.112;2022-09-17T07:38:19;10.80;1.00
23143;DHT22;11740;51.168;4.112;2022-09-17T07:40:56;10.80;1.00
23143;DHT22;11740;51.168;4.112;2022-09-17T07:43:28;10.80;1.00
23143;DHT22;11740;51.168;4.112;2022-09-17T07:45:58;10.80;1.00
23143;DHT22;11740;51.168;4.112;2022-09-17T07:48:26;10.80;1.00
23143;DHT22;11740;51.168;4.112;2022-09-17T07:50:54;10.80;99.90
23143;DHT22;11740;51.168;4.112;2022-09-17T07:53:21;10.90;99.90
23143;DHT22;11740;51.168;4.112;2022-09-17T07:55:51;10.90;99.90
23143;DHT22;11740;51.168;4.112;2022-09-17T07:58:23;10.90;99.90
23143;DHT22;11740;51.168;4.112;2022-09-17T08:00:58;10.90;99.90
23143;DHT22;11740;51.168;4.112;2022-09-17T08:03:28;11.00;99.90
23143;DHT22;11740;51.168;4.112;2022-09-17T08:08:35;11.10;99.90
23143;DHT22;11740;51.168;4.112;2022-09-17T08:11:04;11.10;99.90
23143;DHT22;11740;51.168;4.112;2022-09-17T08:13:38;11.00;1.00
23143;DHT22;11740;51.168;4.112;2022-09-17T08:16:09;11.10;99.90
23143;DHT22;11740;51.168;4.112;2022-09-17T08:18:38;11.10;99.90
23143;DHT22;11740;51.168;4.112;2022-09-17T08:21:06;11.10;99.90
23143;DHT22;11740;51.168;4.112;2022-09-17T08:23:34;11.30;99.90
23143;DHT22;11740;51.168;4.112;2022-09-17T08:26:02;11.30;99.90
23143;DHT22;11740;51.168;4.112;2022-09-17T08:28:30;11.40;99.90
23143;DHT22;11740;51.168;4.112;2022-09-17T08:31:00;11.40;99.90
23143;DHT22;11740;51.168;4.112;2022-09-17T08:33:29;11.40;99.90
23143;DHT22;11740;51.168;4.112;2022-09-17T08:36:00;11.40;99.90
23143;DHT22;11740;51.168;4.112;2022-09-17T08:38:29;11.40;99.90
23143;DHT22;11740;51.168;4.112;2022-09-17T08:43:39;11.50;99.90
23143;DHT22;11740;51.168;4.112;2022-09-17T08:46:09;11.60;99.90
23143;DHT22;11740;51.168;4.112;2022-09-17T08:48:40;11.60;99.90
23143;DHT22;11740;51.168;4.112;2022-09-17T08:51:28;11.70;99.90
23143;DHT22;11740;51.168;4.112;2022-09-17T08:54:04;11.80;99.90
23143;DHT22;11740;51.168;4.112;2022-09-17T08:56:33;11.80;99.90
23143;DHT22;11740;51.168;4.112;2022-09-17T09:01:47;12.00;99.90
23143;DHT22;11740;51.168;4.112;2022-09-17T09:07:41;12.00;1.00
23143;DHT22;11740;51.168;4.112;2022-09-17T09:10:05;12.00;3.60
23143;DHT22;11740;51.168;4.112;2022-09-17T09:12:38;12.00;76.70
23143;DHT22;11740;51.168;4.112;2022-09-17T09:15:06;11.90;99.90
23143;DHT22;11740;51.168;4.112;2022-09-17T09:17:44;12.00;99.90
23143;DHT22;11740;51.168;4.112;2022-09-17T09:20:15;12.00;99.90
23143;DHT22;11740;51.168;4.112;2022-09-17T09:22:47;12.00;99.90
23143;DHT22;11740;51.168;4.112;2022-09-17T09:25:20;12.10;99.90
23143;DHT22;11740;51.168;4.112;2022-09-17T09:28:02;12.10;99.90
23143;DHT22;11740;51.168;4.112;2022-09-17T09:33:53;12.20;92.40
23143;DHT22;11740;51.168;4.112;2022-09-17T09:36:20;12.20;99.90
23143;DHT22;11740;51.168;4.112;2022-09-17T09:38:54;12.20;99.90
23143;DHT22;11740;51.168;4.112;2022-09-17T09:41:30;12.30;78.90
23143;DHT22;11740;51.168;4.112;2022-09-17T09:44:03;12.30;99.90
23143;DHT22;11740;51.168;4.112;2022-09-17T09:51:54;12.20;87.70
23143;DHT22;11740;51.168;4.112;2022-09-17T10:00:20;12.20;99.90
23143;DHT22;11740;51.168;4.112;2022-09-17T10:03:17;12.20;99.90
23143;DHT22;11740;51.168;4.112;2022-09-17T10:05:56;12.30;95.80
23143;DHT22;11740;51.168;4.112;2022-09-17T10:08:24;12.40;99.90
23143;DHT22;11740;51.168;4.112;2022-09-17T10:10:52;12.40;99.90
23143;DHT22;11740;51.168;4.112;2022-09-17T10:13:21;12.50;99.90
23143;DHT22;11740;51.168;4.112;2022-09-17T10:15:48;12.60;99.90
23143;DHT22;11740;51.168;4.112;2022-09-17T10:18:16;12.60;99.90
23143;DHT22;11740;51.168;4.112;2022-09-17T10:20:48;12.60;1.20
23143;DHT22;11740;51.168;4.112;2022-09-17T10:23:22;12.70;1.00
23143;DHT22;11740;51.168;4.112;2022-09-17T10:25:51;12.70;64.00
23143;DHT22;11740;51.168;4.112;2022-09-17T10:28:31;12.70;99.90
23143;DHT22;11740;51.168;4.112;2022-09-17T10:31:04;12.80;99.90
23143;DHT22;11740;51.168;4.112;2022-09-17T10:33:40;12.70;1.00
23143;DHT22;11740;51.168;4.112;2022-09-17T10:36:33;12.70;1.00
23143;DHT22;11740;51.168;4.112;2022-09-17T10:41:53;12.70;1.00
23143;DHT22;11740;51.168;4.112;2022-09-17T10:44:27;12.70;1.00
23143;DHT22;11740;51.168;4.112;2022-09-17T10:47:03;12.70;12.60
23143;DHT22;11740;51.168;4.112;2022-09-17T10:52:24;12.70;51.90
23143;DHT22;11740;51.168;4.112;2022-09-17T10:55:36;12.70;99.90
23143;DHT22;11740;51.168;4.112;2022-09-17T11:11:17;13.00;99.90
23143;DHT22;11740;51.168;4.112;2022-09-17T11:14:14;13.10;99.90
23143;DHT22;11740;51.168;4.112;2022-09-17T11:20:00;13.40;99.90
23143;DHT22;11740;51.168;4.112;2022-09-17T11:25:37;13.50;99.90
23143;DHT22;11740;51.168;4.112;2022-09-17T11:28:12;13.40;99.90
23143;DHT22;11740;51.168;4.112;2022-09-17T11:30:55;13.50;99.90
23143;DHT22;11740;51.168;4.112;2022-09-17T11:36:47;13.70;99.90
23143;DHT22;11740;51.168;4.112;2022-09-17T11:39:19;13.80;99.90
23143;DHT22;11740;51.168;4.112;2022-09-17T11:41:49;13.90;99.90
23143;DHT22;11740;51.168;4.112;2022-09-17T11:44:37;13.90;99.90
23143;DHT22;11740;51.168;4.112;2022-09-17T11:47:11;13.90;16.30
23143;DHT22;11740;51.168;4.112;2022-09-17T11:49:42;14.00;1.00
23143;DHT22;11740;51.168;4.112;2022-09-17T11:52:45;14.10;1.00
23143;DHT22;11740;51.168;4.112;2022-09-17T11:57:43;14.40;99.90
23143;DHT22;11740;51.168;4.112;2022-09-17T12:00:14;14.50;99.90
23143;DHT22;11740;51.168;4.112;2022-09-17T12:02:51;14.50;99.90
23143;DHT22;11740;51.168;4.112;2022-09-17T12:05:21;14.40;99.90
23143;DHT22;11740;51.168;4.112;2022-09-17T12:07:55;14.20;99.90
23143;DHT22;11740;51.168;4.112;2022-09-17T12:10:48;14.10;99.90
23143;DHT22;11740;51.168;4.112;2022-09-17T12:13:33;14.10;99.90
23143;DHT22;11740;51.168;4.112;2022-09-17T12:21:28;14.10;99.90
23143;DHT22;11740;51.168;4.112;2022-09-17T12:29:53;14.60;26.90
23143;DHT22;11740;51.168;4.112;2022-09-17T12:35:54;14.90;73.10
23143;DHT22;11740;51.168;4.112;2022-09-17T12:39:23;15.00;1.00
23143;DHT22;11740;51.168;4.112;2022-09-17T12:41:53;15.20;1.00
23143;DHT22;11740;51.168;4.112;2022-09-17T12:44:50;15.30;99.90
23143;DHT22;11740;51.168;4.112;2022-09-17T12:47:41;15.30;71.40
23143;DHT22;11740;51.168;4.112;2022-09-17T12:50:16;15.20;1.00
23143;DHT22;11740;51.168;4.112;2022-09-17T12:53:19;15.20;99.90
23143;DHT22;11740;51.168;4.112;2022-09-17T12:56:08;15.30;1.00
23143;DHT22;11740;51.168;4.112;2022-09-17T13:04:19;15.70;99.90
23143;DHT22;11740;51.168;4.112;2022-09-17T13:10:11;15.80;1.00
23143;DHT22;11740;51.168;4.112;2022-09-17T13:21:11;15.90;99.90
23143;DHT22;11740;51.168;4.112;2022-09-17T13:23:40;16.00;1.00
23143;DHT22;11740;51.168;4.112;2022-09-17T13:26:09;16.00;1.00
23143;DHT22;11740;51.168;4.112;2022-09-17T13:28:47;16.20;1.00
23143;DHT22;11740;51.168;4.112;2022-09-17T13:31:20;16.10;99.90
23143;DHT22;11740;51.168;4.112;2022-09-17T13:34:02;16.10;99.90
23143;DHT22;11740;51.168;4.112;2022-09-17T13:36:42;16.10;1.00
23143;DHT22;11740;51.168;4.112;2022-09-17T13:42:24;16.10;1.00
23143;DHT22;11740;51.168;4.112;2022-09-17T13:47:29;16.20;87.90
23143;DHT22;11740;51.168;4.112;2022-09-17T13:49:58;16.20;99.90
23143;DHT22;11740;51.168;4.112;2022-09-17T13:52:50;16.30;99.90
23143;DHT22;11740;51.168;4.112;2022-09-17T13:58:04;16.30;99.90
23143;DHT22;11740;51.168;4.112;2022-09-17T14:11:35;16.60;1.00
23143;DHT22;11740;51.168;4.112;2022-09-17T14:21:42;16.50;99.90
23143;DHT22;11740;51.168;4.112;2022-09-17T14:24:21;16.50;1.00
23143;DHT22;11740;51.168;4.112;2022-09-17T14:26:53;16.50;1.00
23143;DHT22;11740;51.168;4.112;2022-09-17T14:35:38;16.70;99.90
23143;DHT22;11740;51.168;4.112;2022-09-17T14:38:20;16.70;99.90
23143;DHT22;11740;51.168;4.112;2022-09-17T14:41:36;16.80;99.90
23143;DHT22;11740;51.168;4.112;2022-09-17T14:46:08;16.90;99.90
23143;DHT22;11740;51.168;4.112;2022-09-17T14:48:39;17.00;99.90
23143;DHT22;11740;51.168;4.112;2022-09-17T14:53:45;17.10;46.30
23143;DHT22;11740;51.168;4.112;2022-09-17T14:56:45;17.10;10.20
23143;DHT22;11740;51.168;4.112;2022-09-17T15:02:17;17.00;99.90
23143;DHT22;11740;51.168;4.112;2022-09-17T15:04:47;17.00;28.20
23143;DHT22;11740;51.168;4.112;2022-09-17T15:07:14;16.90;99.90
23143;DHT22;11740;51.168;4.112;2022-09-17T15:09:41;16.90;99.90
23143;DHT22;11740;51.168;4.112;2022-09-17T15:12:08;17.00;99.90
23143;DHT22;11740;51.168;4.112;2022-09-17T15:14:42;17.20;1.00
23143;DHT22;11740;51.168;4.112;2022-09-17T15:17:13;17.40;99.90
23143;DHT22;11740;51.168;4.112;2022-09-17T15:19:43;17.60;99.90
23143;DHT22;11740;51.168;4.112;2022-09-17T15:22:31;17.80;2.40
23143;DHT22;11740;51.168;4.112;2022-09-17T15:25:03;17.90;1.00
23143;DHT22;11740;51.168;4.112;2022-09-17T15:27:37;17.70;1.00
23143;DHT22;11740;51.168;4.112;2022-09-17T15:30:10;17.50;1.00
23143;DHT22;11740;51.168;4.112;2022-09-17T15:32:41;17.50;99.90
23143;DHT22;11740;51.168;4.112;2022-09-17T15:37:50;17.30;1.00
23143;DHT22;11740;51.168;4.112;2022-09-17T15:40:39;17.60;99.90
23143;DHT22;11740;51.168;4.112;2022-09-17T15:45:56;18.00;99.90
23143;DHT22;11740;51.168;4.112;2022-09-17T15:50:54;17.80;99.90
23143;DHT22;11740;51.168;4.112;2022-09-17T15:53:26;17.80;99.90
23143;DHT22;11740;51.168;4.112;2022-09-17T15:56:07;18.00;1.00
23143;DHT22;11740;51.168;4.112;2022-09-17T16:01:38;17.90;99.90
23143;DHT22;11740;51.168;4.112;2022-09-17T16:04:06;17.90;99.90
23143;DHT22;11740;51.168;4.112;2022-09-17T16:06:36;17.90;1.00
23143;DHT22;11740;51.168;4.112;2022-09-17T16:09:11;17.80;1.00
23143;DHT22;11740;51.168;4.112;2022-09-17T16:12:01;17.80;1.00
23143;DHT22;11740;51.168;4.112;2022-09-17T16:14:28;17.80;1.00
23143;DHT22;11740;51.168;4.112;2022-09-17T16:16:55;17.70;1.00
23143;DHT22;11740;51.168;4.112;2022-09-17T16:19:22;17.70;1.00
23143;DHT22;11740;51.168;4.112;2022-09-17T16:21:49;17.50;99.90
23143;DHT22;11740;51.168;4.112;2022-09-17T16:24:16;17.40;1.00
23143;DHT22;11740;51.168;4.112;2022-09-17T16:26:42;17.40;99.90
23143;DHT22;11740;51.168;4.112;2022-09-17T16:29:11;17.50;99.90
23143;DHT22;11740;51.168;4.112;2022-09-17T16:31:40;17.50;99.90
23143;DHT22;11740;51.168;4.112;2022-09-17T16:34:07;17.40;1.00
23143;DHT22;11740;51.168;4.112;2022-09-17T16:36:34;17.40;1.00
23143;DHT22;11740;51.168;4.112;2022-09-17T16:39:01;17.30;1.00
23143;DHT22;11740;51.168;4.112;2022-09-17T16:41:28;17.30;1.00
23143;DHT22;11740;51.168;4.112;2022-09-17T16:43:55;17.30;1.00
23143;DHT22;11740;51.168;4.112;2022-09-17T16:46:22;17.30;99.90
23143;DHT22;11740;51.168;4.112;2022-09-17T16:48:49;17.20;99.90
23143;DHT22;11740;51.168;4.112;2022-09-17T16:51:17;17.20;99.90
23143;DHT22;11740;51.168;4.112;2022-09-17T16:53:44;17.30;99.90
23143;DHT22;11740;51.168;4.112;2022-09-17T16:56:12;17.20;40.70
23143;DHT22;11740;51.168;4.112;2022-09-17T16:58:39;17.10;99.90
23143;DHT22;11740;51.168;4.112;2022-09-17T17:01:07;17.10;44.30
23143;DHT22;11740;51.168;4.112;2022-09-17T17:03:35;17.10;1.00
23143;DHT22;11740;51.168;4.112;2022-09-17T17:06:02;16.70;99.90
23143;DHT22;11740;51.168;4.112;2022-09-17T17:08:32;16.60;1.00
23143;DHT22;11740;51.168;4.112;2022-09-17T17:10:59;16.70;12.60
23143;DHT22;11740;51.168;4.112;2022-09-17T17:13:26;16.70;1.00
23143;DHT22;11740;51.168;4.112;2022-09-17T17:15:53;16.80;1.00
23143;DHT22;11740;51.168;4.112;2022-09-17T17:18:21;16.60;1.00
23143;DHT22;11740;51.168;4.112;2022-09-17T17:20:50;16.60;1.00
23143;DHT22;11740;51.168;4.112;2022-09-17T17:23:17;16.70;1.00
23143;DHT22;11740;51.168;4.112;2022-09-17T17:25:44;16.40;1.00
23143;DHT22;11740;51.168;4.112;2022-09-17T17:28:11;16.30;99.90
23143;DHT22;11740;51.168;4.112;2022-09-17T17:30:40;16.30;99.90
23143;DHT22;11740;51.168;4.112;2022-09-17T17:33:07;16.10;84.80
23143;DHT22;11740;51.168;4.112;2022-09-17T17:35:37;16.20;99.90
23143;DHT22;11740;51.168;4.112;2022-09-17T17:38:04;16.10;99.90
23143;DHT22;11740;51.168;4.112;2022-09-17T17:40:31;16.10;99.90
23143;DHT22;11740;51.168;4.112;2022-09-17T17:42:58;16.20;1.00
23143;DHT22;11740;51.168;4.112;2022-09-17T17:45:24;16.10;99.90
23143;DHT22;11740;51.168;4.112;2022-09-17T17:47:51;16.00;99.90
23143;DHT22;11740;51.168;4.112;2022-09-17T17:50:18;15.90;99.90
23143;DHT22;11740;51.168;4.112;2022-09-17T17:52:45;15.80;1.00
23143;DHT22;11740;51.168;4.112;2022-09-17T17:55:14;15.80;1.00
23143;DHT22;11740;51.168;4.112;2022-09-17T17:57:41;15.80;1.00
23143;DHT22;11740;51.168;4.112;2022-09-17T18:00:08;15.70;1.00
23143;DHT22;11740;51.168;4.112;2022-09-17T18:02:38;15.70;1.00
23143;DHT22;11740;51.168;4.112;2022-09-17T18:05:05;15.50;1.00
23143;DHT22;11740;51.168;4.112;2022-09-17T18:07:32;15.60;1.00
23143;DHT22;11740;51.168;4.112;2022-09-17T18:10:00;15.70;1.00
23143;DHT22;11740;51.168;4.112;2022-09-17T18:12:26;15.60;1.00
23143;DHT22;11740;51.168;4.112;2022-09-17T18:14:53;15.60;1.00
23143;DHT22;11740;51.168;4.112;2022-09-17T18:17:20;15.60;1.00
23143;DHT22;11740;51.168;4.112;2022-09-17T18:19:47;15.50;1.00
23143;DHT22;11740;51.168;4.112;2022-09-17T18:22:14;15.50;52.20
23143;DHT22;11740;51.168;4.112;2022-09-17T18:24:41;15.50;14.90
23143;DHT22;11740;51.168;4.112;2022-09-17T18:27:08;15.50;99.90
23143;DHT22;11740;51.168;4.112;2022-09-17T18:29:35;15.30;99.90
23143;DHT22;11740;51.168;4.112;2022-09-17T18:32:01;15.20;1.00
23143;DHT22;11740;51.168;4.112;2022-09-17T18:34:28;15.20;1.00
23143;DHT22;11740;51.168;4.112;2022-09-17T18:36:55;15.20;1.00
23143;DHT22;11740;51.168;4.112;2022-09-17T18:39:22;15.20;99.90
23143;DHT22;11740;51.168;4.112;2022-09-17T18:42:09;15.20;99.90
23143;DHT22;11740;51.168;4.112;2022-09-17T18:44:36;15.20;99.90
23143;DHT22;11740;51.168;4.112;2022-09-17T18:47:02;15.10;1.00
23143;DHT22;11740;51.168;4.112;2022-09-17T18:49:29;15.00;1.00
23143;DHT22;11740;51.168;4.112;2022-09-17T18:51:56;15.00;1.00
23143;DHT22;11740;51.168;4.112;2022-09-17T18:54:23;15.10;1.00
23143;DHT22;11740;51.168;4.112;2022-09-17T18:56:50;15.10;1.00
23143;DHT22;11740;51.168;4.112;2022-09-17T18:59:17;14.90;1.00
23143;DHT22;11740;51.168;4.112;2022-09-17T19:01:46;14.90;1.00
23143;DHT22;11740;51.168;4.112;2022-09-17T19:04:14;14.80;11.80
23143;DHT22;11740;51.168;4.112;2022-09-17T19:06:41;14.70;99.90
23143;DHT22;11740;51.168;4.112;2022-09-17T19:09:07;14.60;99.90